Time;durP1;ratioP1;P1;durP2;ratioP2;P2;SDS_P1;SDS_P2;PMS_P1;PMS_P2;Temp;Humidity;BMP_temperature;BMP_pressure;BME280_temperature;BME280_humidity;BME280_pressure;Samples;Min_cycle;Max_cycle;Signal;HPM_P1;HPM_P2
2021/10/21 00:01:52;;;;;;;1.02;1.02;;;13.50;91.90;;;;;;5001589;28;20029;-79
2021/10/21 00:04:18;;;;;;;1.55;1.30;;;13.50;91.70;;;;;;5018416;28;20034;-78
2021/10/21 00:06:44;;;;;;;1.50;1.25;;;13.50;91.70;;;;;;5018016;28;20026;-79
2021/10/21 00:09:10;;;;;;;1.77;1.55;;;13.50;91.50;;;;;;5005770;28;20122;-79
2021/10/21 00:11:36;;;;;;;2.65;1.42;;;13.60;91.40;;;;;;5018337;28;20045;-79
2021/10/21 00:14:02;;;;;;;2.35;1.10;;;13.60;91.00;;;;;;5005651;28;20026;-79
2021/10/21 00:16:28;;;;;;;1.40;1.30;;;13.60;90.80;;;;;;4984504;28;20476;-81
2021/10/21 00:18:54;;;;;;;1.88;1.40;;;13.60;90.60;;;;;;5001430;28;20113;-78
2021/10/21 00:21:20;;;;;;;1.88;1.38;;;13.70;90.50;;;;;;4980665;28;20035;-79
2021/10/21 00:23:46;;;;;;;1.20;1.10;;;13.70;90.30;;;;;;4999448;28;20088;-79
2021/10/21 00:26:13;;;;;;;2.63;1.65;;;13.70;90.20;;;;;;4989238;28;20015;-79
2021/10/21 00:28:38;;;;;;;1.92;1.35;;;13.80;90.00;;;;;;4987557;28;20038;-80
2021/10/21 00:31:05;;;;;;;1.65;1.55;;;13.80;89.60;;;;;;4987764;28;20022;-80
2021/10/21 00:33:31;;;;;;;2.05;1.85;;;13.80;89.20;;;;;;5004421;28;20109;-78
2021/10/21 00:35:57;;;;;;;1.63;1.30;;;13.80;88.70;;;;;;5002621;28;20036;-79
2021/10/21 00:38:23;;;;;;;2.15;1.58;;;13.80;88.40;;;;;;5002257;28;20050;-79
2021/10/21 00:40:48;;;;;;;1.50;1.40;;;13.90;87.90;;;;;;5001542;28;20034;-79
2021/10/21 00:43:14;;;;;;;1.40;1.25;;;14.00;87.50;;;;;;5000580;28;20026;-79
2021/10/21 00:45:40;;;;;;;1.38;1.27;;;14.00;87.00;;;;;;4982618;28;20031;-79
2021/10/21 00:48:06;;;;;;;1.98;1.38;;;14.10;86.30;;;;;;4999377;28;20062;-79
2021/10/21 00:50:34;;;;;;;2.10;1.90;;;14.20;85.30;;;;;;5001139;28;20029;-80
2021/10/21 00:53:00;;;;;;;1.90;1.60;;;14.30;84.40;;;;;;4999723;28;20232;-79
2021/10/21 00:55:27;;;;;;;1.63;1.40;;;14.30;83.60;;;;;;4997124;28;20035;-79
2021/10/21 00:57:54;;;;;;;1.35;1.25;;;14.40;82.90;;;;;;4984258;28;20079;-78
2021/10/21 01:00:20;;;;;;;1.75;1.52;;;14.50;82.30;;;;;;4998542;28;20494;-78
2021/10/21 01:02:46;;;;;;;1.83;1.55;;;14.50;81.80;;;;;;4987780;28;20108;-79
2021/10/21 01:05:13;;;;;;;1.73;1.60;;;14.50;81.20;;;;;;5002620;28;20030;-80
2021/10/21 01:07:39;;;;;;;1.75;1.55;;;14.60;80.80;;;;;;5001196;28;20030;-80
2021/10/21 01:10:08;;;;;;;1.80;1.70;;;14.60;80.40;;;;;;5000768;28;20050;-79
2021/10/21 01:12:36;;;;;;;1.75;1.65;;;14.60;80.20;;;;;;5000337;28;20479;-79
2021/10/21 01:15:27;;;;;;;1.70;1.60;;;14.60;80.00;;;;;;5004872;28;20484;-79
2021/10/21 01:17:54;;;;;;;1.92;1.77;;;14.50;79.30;;;;;;5005412;28;20037;-80
2021/10/21 01:20:21;;;;;;;1.67;1.42;;;14.50;79.00;;;;;;5006299;28;20027;-79
2021/10/21 01:22:47;;;;;;;1.60;1.50;;;14.50;79.60;;;;;;5001570;28;20042;-79
2021/10/21 01:25:15;;;;;;;1.83;1.60;;;14.50;78.80;;;;;;4992437;28;20084;-79
2021/10/21 01:27:42;;;;;;;1.52;1.38;;;14.40;78.40;;;;;;4999214;28;20033;-79
2021/10/21 01:30:08;;;;;;;1.63;1.52;;;14.40;78.40;;;;;;5000037;28;20038;-79
2021/10/21 01:32:36;;;;;;;1.45;1.35;;;14.40;78.30;;;;;;4999267;28;20052;-79
2021/10/21 01:35:03;;;;;;;1.42;1.33;;;14.40;78.10;;;;;;5001049;28;20034;-79
2021/10/21 01:37:32;;;;;;;1.83;1.73;;;14.40;78.10;;;;;;4983880;28;20054;-80
2021/10/21 01:39:59;;;;;;;1.50;1.40;;;14.40;77.90;;;;;;5000059;28;20447;-79
2021/10/21 01:42:25;;;;;;;1.77;1.65;;;14.40;77.60;;;;;;4999538;28;20036;-79
2021/10/21 01:44:52;;;;;;;1.85;1.70;;;14.40;77.20;;;;;;4999566;28;20033;-80
2021/10/21 01:47:18;;;;;;;2.00;1.70;;;14.40;77.30;;;;;;4982155;28;20022;-79
2021/10/21 01:49:43;;;;;;;1.50;1.40;;;14.30;76.90;;;;;;4998743;28;20022;-78
2021/10/21 01:52:09;;;;;;;1.90;1.80;;;14.20;76.90;;;;;;5000225;28;20023;-80
2021/10/21 01:54:35;;;;;;;1.67;1.58;;;14.20;77.00;;;;;;4999246;28;20019;-81
2021/10/21 01:57:01;;;;;;;2.08;1.63;;;14.10;76.80;;;;;;4973494;28;20034;-79
2021/10/21 01:59:27;;;;;;;1.80;1.70;;;14.10;76.90;;;;;;4998673;28;20089;-79
2021/10/21 02:01:52;;;;;;;1.83;1.55;;;14.10;77.00;;;;;;4998424;28;20399;-79
2021/10/21 02:04:18;;;;;;;1.65;1.55;;;14.00;76.90;;;;;;4999417;28;20065;-79
2021/10/21 02:06:44;;;;;;;2.63;1.67;;;14.00;77.10;;;;;;4999195;28;20025;-79
2021/10/21 02:09:09;;;;;;;1.70;1.60;;;14.00;77.30;;;;;;5000482;28;20066;-79
2021/10/21 02:11:35;;;;;;;1.52;1.42;;;14.00;77.20;;;;;;5000363;28;20099;-79
2021/10/21 02:14:01;;;;;;;1.75;1.65;;;14.00;77.00;;;;;;5003983;28;20030;-79
2021/10/21 02:16:27;;;;;;;3.22;1.95;;;14.10;76.90;;;;;;5016357;28;20065;-79
2021/10/21 02:18:53;;;;;;;2.33;2.00;;;14.10;76.60;;;;;;5000376;28;20026;-79
2021/10/21 02:21:20;;;;;;;2.35;2.15;;;14.10;76.50;;;;;;4999975;28;20022;-79
2021/10/21 02:23:46;;;;;;;1.98;1.80;;;14.10;76.30;;;;;;5002183;28;20518;-79
2021/10/21 02:26:11;;;;;;;1.70;1.60;;;14.20;76.20;;;;;;4996401;28;20022;-79
2021/10/21 02:28:37;;;;;;;1.67;1.52;;;14.30;75.70;;;;;;5007037;28;20065;-79
2021/10/21 02:31:03;;;;;;;2.00;1.80;;;14.30;75.30;;;;;;5014070;28;20029;-79
2021/10/21 02:33:29;;;;;;;1.75;1.65;;;14.40;75.00;;;;;;4997242;28;20073;-79
2021/10/21 02:35:55;;;;;;;1.98;1.73;;;14.40;74.80;;;;;;5015559;28;20026;-79
2021/10/21 02:38:21;;;;;;;1.40;1.30;;;14.40;74.60;;;;;;5009689;28;20010;-79
2021/10/21 02:40:47;;;;;;;1.60;1.50;;;14.40;74.50;;;;;;4991895;28;20044;-79
2021/10/21 02:43:13;;;;;;;1.80;1.52;;;14.50;74.20;;;;;;5003861;28;20026;-79
2021/10/21 02:45:40;;;;;;;2.65;1.70;;;14.50;73.60;;;;;;5008853;28;20102;-79
2021/10/21 02:48:06;;;;;;;2.22;1.98;;;14.50;73.50;;;;;;5009842;28;20094;-79
2021/10/21 02:50:32;;;;;;;3.25;2.17;;;14.60;73.60;;;;;;5009685;28;20061;-79
2021/10/21 02:52:58;;;;;;;2.28;2.03;;;14.70;73.40;;;;;;5008577;28;20057;-79
2021/10/21 02:55:24;;;;;;;2.13;1.92;;;14.80;72.60;;;;;;5000407;28;20085;-78
2021/10/21 02:57:49;;;;;;;2.15;1.95;;;14.90;72.30;;;;;;4983978;28;20065;-79
2021/10/21 03:00:15;;;;;;;3.13;2.08;;;14.90;72.60;;;;;;5003109;28;20033;-78
2021/10/21 03:02:41;;;;;;;3.42;2.00;;;14.80;73.40;;;;;;5001607;28;20395;-79
2021/10/21 03:05:08;;;;;;;2.28;2.08;;;14.60;74.20;;;;;;4996734;28;20038;-79
2021/10/21 03:07:34;;;;;;;3.30;2.10;;;14.50;74.80;;;;;;4994528;28;20496;-80
2021/10/21 03:10:00;;;;;;;1.63;1.52;;;14.40;75.50;;;;;;4999532;28;20026;-79
2021/10/21 03:12:26;;;;;;;2.10;1.90;;;14.30;76.00;;;;;;5001290;28;20030;-79
2021/10/21 03:14:51;;;;;;;2.40;1.90;;;14.30;76.50;;;;;;4984465;28;20160;-80
2021/10/21 03:17:17;;;;;;;1.95;1.50;;;14.20;76.90;;;;;;5003004;28;20050;-80
2021/10/21 03:19:43;;;;;;;3.00;2.22;;;14.20;77.10;;;;;;5003113;28;20057;-79
2021/10/21 03:22:09;;;;;;;3.28;2.13;;;14.30;77.20;;;;;;5005196;28;20029;-79
2021/10/21 03:24:34;;;;;;;3.90;1.88;;;14.30;77.00;;;;;;5000108;28;20046;-80
2021/10/21 03:27:00;;;;;;;3.75;2.38;;;14.40;76.90;;;;;;5027073;22;20133;-77
2021/10/21 03:29:26;;;;;;;2.50;1.88;;;14.40;76.80;;;;;;4997884;28;20159;-77
2021/10/21 03:31:52;;;;;;;2.58;2.08;;;14.40;76.80;;;;;;5015644;28;20022;-77
2021/10/21 03:34:18;;;;;;;2.10;1.90;;;14.40;76.90;;;;;;4997038;28;20033;-77
2021/10/21 03:36:43;;;;;;;3.08;1.90;;;14.40;77.10;;;;;;5016453;28;20029;-78
2021/10/21 03:39:13;;;;;;;5.20;1.90;;;14.40;77.30;;;;;;5016177;28;20440;-77
2021/10/21 03:41:38;;;;;;;3.45;1.80;;;14.40;77.50;;;;;;5016986;28;20030;-78
2021/10/21 03:44:04;;;;;;;1.88;1.77;;;14.40;77.60;;;;;;5015867;28;20080;-77
2021/10/21 03:46:30;;;;;;;3.25;2.08;;;14.30;77.90;;;;;;5015183;28;20390;-77
2021/10/21 03:48:56;;;;;;;2.45;2.10;;;14.30;78.30;;;;;;5013870;28;20018;-76
2021/10/21 03:51:21;;;;;;;2.38;2.00;;;14.30;78.40;;;;;;4997981;28;20037;-77
2021/10/21 03:53:47;;;;;;;3.17;2.58;;;14.30;78.60;;;;;;5020435;28;20018;-78
2021/10/21 03:56:13;;;;;;;3.47;2.30;;;14.30;78.50;;;;;;5018478;28;20394;-80
2021/10/21 03:58:39;;;;;;;2.60;2.40;;;14.30;78.50;;;;;;4992050;28;20056;-77
2021/10/21 04:01:04;;;;;;;4.45;2.10;;;14.30;78.60;;;;;;5001764;28;20538;-76
2021/10/21 04:03:39;;;;;;;2.00;1.90;;;14.20;78.80;;;;;;5024607;28;20045;-78
2021/10/21 04:06:05;;;;;;;3.45;2.00;;;14.20;78.90;;;;;;5007031;28;20062;-77
2021/10/21 04:08:30;;;;;;;4.95;1.95;;;14.20;79.00;;;;;;5021504;28;20033;-78
2021/10/21 04:10:56;;;;;;;2.10;1.90;;;14.30;78.80;;;;;;5019717;28;20310;-77
2021/10/21 04:13:22;;;;;;;2.33;1.90;;;14.40;78.40;;;;;;5017167;28;20026;-78
2021/10/21 04:15:48;;;;;;;2.83;2.20;;;14.40;78.40;;;;;;5017231;28;20473;-78
2021/10/21 04:18:14;;;;;;;3.00;2.00;;;14.40;78.10;;;;;;5017501;28;20441;-78
2021/10/21 04:20:40;;;;;;;4.43;2.33;;;14.50;78.40;;;;;;5000270;28;20025;-78
2021/10/21 04:23:06;;;;;;;3.17;2.50;;;14.50;78.50;;;;;;5017615;28;20072;-77
2021/10/21 04:25:31;;;;;;;3.10;2.17;;;14.50;78.60;;;;;;4998139;28;20129;-77
2021/10/21 04:27:57;;;;;;;2.00;1.77;;;14.40;78.60;;;;;;4998871;28;20427;-76
2021/10/21 04:30:23;;;;;;;2.30;1.98;;;14.50;78.20;;;;;;4996881;28;20033;-77
2021/10/21 04:32:49;;;;;;;2.97;2.25;;;14.50;78.20;;;;;;5020605;28;20498;-77
2021/10/21 04:35:15;;;;;;;2.65;2.25;;;14.50;77.70;;;;;;5021567;28;20026;-78
2021/10/21 04:37:40;;;;;;;2.90;2.33;;;14.60;77.60;;;;;;5027778;28;20014;-78
2021/10/21 04:40:06;;;;;;;2.65;2.25;;;14.60;77.70;;;;;;5006886;28;20029;-79
2021/10/21 04:42:32;;;;;;;2.30;2.10;;;14.50;77.80;;;;;;5006007;28;20037;-81
2021/10/21 04:44:58;;;;;;;3.15;2.17;;;14.50;78.00;;;;;;5009011;28;20029;-80
2021/10/21 04:47:23;;;;;;;4.07;1.88;;;14.60;78.20;;;;;;5020398;28;20036;-80
2021/10/21 04:49:49;;;;;;;2.63;2.10;;;14.60;79.10;;;;;;5002316;28;20033;-80
2021/10/21 04:52:15;;;;;;;3.30;2.35;;;14.50;79.60;;;;;;5018539;28;20033;-78
2021/10/21 04:54:42;;;;;;;2.72;2.17;;;14.40;80.40;;;;;;5019557;28;20398;-78
2021/10/21 04:57:07;;;;;;;3.33;2.10;;;14.40;81.00;;;;;;5020312;28;20030;-79
2021/10/21 04:59:33;;;;;;;4.63;1.90;;;14.40;81.60;;;;;;4995942;28;20044;-79
2021/10/21 05:01:59;;;;;;;5.20;2.30;;;14.40;82.00;;;;;;5001629;28;20515;-80
2021/10/21 05:04:25;;;;;;;2.67;2.15;;;14.30;82.20;;;;;;5001458;28;20034;-80
2021/10/21 05:06:50;;;;;;;2.53;2.20;;;14.30;82.70;;;;;;5019333;28;20026;-79
2021/10/21 05:09:16;;;;;;;2.47;2.25;;;14.20;83.00;;;;;;5017976;28;20049;-80
2021/10/21 05:11:42;;;;;;;2.88;2.38;;;14.20;83.60;;;;;;5017949;28;20061;-79
2021/10/21 05:14:08;;;;;;;2.92;2.22;;;14.10;84.00;;;;;;5018355;28;20026;-80
2021/10/21 05:16:34;;;;;;;3.72;2.72;;;14.20;84.50;;;;;;5018669;28;20434;-80
2021/10/21 05:18:59;;;;;;;5.55;3.08;;;14.10;85.30;;;;;;5017310;28;20034;-79
2021/10/21 05:21:25;;;;;;;4.20;3.30;;;14.10;85.90;;;;;;5021406;28;20025;-80
2021/10/21 05:23:51;;;;;;;4.35;3.40;;;14.20;86.40;;;;;;5018932;28;20105;-81
2021/10/21 05:26:16;;;;;;;4.55;3.15;;;14.20;86.60;;;;;;5016984;28;20089;-80
2021/10/21 05:28:42;;;;;;;4.28;3.47;;;14.20;86.80;;;;;;5017412;28;20029;-80
2021/10/21 05:31:08;;;;;;;4.80;3.13;;;14.30;86.40;;;;;;5017696;28;20049;-80
2021/10/21 05:33:36;;;;;;;3.30;3.00;;;14.40;85.40;;;;;;5017076;28;20121;-80
2021/10/21 05:36:06;;;;;;;3.85;3.25;;;14.50;84.50;;;;;;5017990;28;20022;-80
2021/10/21 05:38:31;;;;;;;4.40;3.58;;;14.60;84.40;;;;;;5016870;28;20137;-80
2021/10/21 05:40:58;;;;;;;5.15;3.20;;;14.70;83.00;;;;;;5016958;28;20025;-80
2021/10/21 05:43:23;;;;;;;4.70;3.40;;;14.80;82.50;;;;;;5016933;28;20113;-78
2021/10/21 05:45:50;;;;;;;4.68;3.50;;;14.90;82.20;;;;;;5016976;28;20029;-80
2021/10/21 05:48:16;;;;;;;3.63;3.30;;;14.90;82.00;;;;;;5016194;28;20026;-80
2021/10/21 05:50:43;;;;;;;5.70;3.58;;;15.00;81.40;;;;;;5017367;28;20411;-80
2021/10/21 05:53:08;;;;;;;3.70;3.13;;;15.10;81.30;;;;;;5017488;28;20022;-81
2021/10/21 05:55:34;;;;;;;5.32;3.38;;;15.10;81.50;;;;;;5017167;28;20050;-79
2021/10/21 05:58:01;;;;;;;5.05;3.30;;;15.00;81.80;;;;;;5007379;28;20105;-79
2021/10/21 06:00:26;;;;;;;4.00;2.67;;;15.10;82.20;;;;;;5016618;28;20044;-79
2021/10/21 06:02:52;;;;;;;4.85;2.55;;;15.20;83.20;;;;;;5017025;28;20026;-79
2021/10/21 06:05:22;;;;;;;2.35;1.77;;;15.20;84.40;;;;;;4998298;28;20026;-80
2021/10/21 06:07:48;;;;;;;2.38;2.17;;;15.30;85.20;;;;;;4998717;28;20021;-80
2021/10/21 06:10:13;;;;;;;5.60;1.83;;;15.30;85.80;;;;;;5016852;28;20072;-80
2021/10/21 06:12:39;;;;;;;1.92;1.67;;;15.40;87.00;;;;;;5018190;28;20045;-79
2021/10/21 06:15:06;;;;;;;1.92;1.50;;;15.40;87.90;;;;;;5002025;28;20049;-80
2021/10/21 06:17:32;;;;;;;1.70;1.60;;;15.40;89.40;;;;;;5020377;28;20145;-80
2021/10/21 06:19:58;;;;;;;1.40;1.30;;;15.30;90.20;;;;;;5003885;28;20069;-81
2021/10/21 06:22:24;;;;;;;2.13;1.40;;;15.20;90.90;;;;;;5020088;28;20034;-80
2021/10/21 06:24:50;;;;;;;2.75;1.77;;;15.10;91.90;;;;;;5016830;28;20044;-79
2021/10/21 06:27:15;;;;;;;1.83;1.40;;;15.00;92.70;;;;;;5014199;28;20026;-80
2021/10/21 06:29:41;;;;;;;2.85;1.40;;;14.90;93.40;;;;;;5011125;28;20105;-80
2021/10/21 06:32:08;;;;;;;1.67;1.20;;;14.80;93.90;;;;;;5004144;28;20022;-79
2021/10/21 06:34:35;;;;;;;4.07;1.63;;;14.70;92.50;;;;;;5032363;28;20044;-80
2021/10/21 06:37:01;;;;;;;1.75;0.80;;;14.50;91.40;;;;;;5030417;28;20033;-80
2021/10/21 06:39:27;;;;;;;2.47;0.57;;;14.40;90.90;;;;;;5002076;28;20030;-80
2021/10/21 06:41:53;;;;;;;1.90;0.65;;;14.30;88.70;;;;;;5018591;28;20084;-80
2021/10/21 06:44:18;;;;;;;2.10;0.63;;;14.20;87.30;;;;;;5018981;28;20105;-80
2021/10/21 06:46:44;;;;;;;3.00;0.73;;;14.20;87.30;;;;;;5020095;28;20029;-79
2021/10/21 06:49:10;;;;;;;1.52;0.73;;;14.10;88.00;;;;;;5003539;28;20116;-81
2021/10/21 06:51:35;;;;;;;2.40;0.52;;;14.00;87.20;;;;;;5017422;28;20494;-79
2021/10/21 06:54:01;;;;;;;1.42;0.43;;;14.00;86.50;;;;;;5019096;28;20100;-81
2021/10/21 06:56:27;;;;;;;1.52;0.47;;;14.00;83.60;;;;;;5018854;28;20049;-78
2021/10/21 06:58:53;;;;;;;6.68;0.57;;;14.10;79.90;;;;;;5019744;28;20033;-80
2021/10/21 07:01:18;;;;;;;5.28;0.77;;;14.20;77.60;;;;;;5000719;28;20109;-79
2021/10/21 07:03:44;;;;;;;5.22;0.98;;;14.30;75.10;;;;;;5019642;28;20092;-79
2021/10/21 07:06:10;;;;;;;9.45;1.05;;;14.30;73.70;;;;;;5000745;28;20463;-80
2021/10/21 07:08:36;;;;;;;5.05;0.60;;;14.40;73.30;;;;;;5023020;28;20014;-79
2021/10/21 07:11:02;;;;;;;3.13;0.52;;;14.60;72.60;;;;;;5009379;28;20029;-80
2021/10/21 07:13:28;;;;;;;4.63;0.70;;;14.60;73.10;;;;;;5007090;28;20048;-79
2021/10/21 07:15:54;;;;;;;3.38;0.52;;;14.50;73.90;;;;;;5027719;28;20474;-80
2021/10/21 07:18:19;;;;;;;3.40;0.70;;;14.50;74.00;;;;;;5008774;28;20045;-80
2021/10/21 07:20:45;;;;;;;3.25;0.70;;;14.50;74.80;;;;;;5025801;28;20022;-80
2021/10/21 07:23:11;;;;;;;6.78;0.88;;;14.40;75.90;;;;;;5026484;28;20048;-79
2021/10/21 07:25:38;;;;;;;0.85;0.68;;;14.20;77.00;;;;;;5010644;28;20127;-79
2021/10/21 07:28:04;;;;;;;1.95;0.47;;;14.20;77.80;;;;;;5028108;28;20022;-80
2021/10/21 07:30:30;;;;;;;4.85;0.50;;;14.10;78.90;;;;;;5024747;28;20033;-80
2021/10/21 07:32:58;;;;;;;2.65;0.80;;;14.10;79.60;;;;;;5023438;28;20084;-80
2021/10/21 07:35:25;;;;;;;3.35;0.93;;;14.10;80.00;;;;;;5021294;28;20061;-80
2021/10/21 07:37:50;;;;;;;2.65;0.60;;;14.10;80.80;;;;;;5023543;28;20040;-80
2021/10/21 07:40:17;;;;;;;2.92;0.60;;;14.00;80.50;;;;;;5033446;28;20110;-80
2021/10/21 07:42:43;;;;;;;1.20;0.52;;;14.00;81.10;;;;;;5018891;28;20024;-79
2021/10/21 07:45:11;;;;;;;1.75;0.50;;;14.00;81.30;;;;;;5015417;28;20057;-79
2021/10/21 07:47:38;;;;;;;2.15;0.80;;;14.10;81.30;;;;;;5021929;28;20033;-80
2021/10/21 07:50:06;;;;;;;1.67;0.57;;;14.10;80.80;;;;;;5020272;28;20116;-81
2021/10/21 07:52:33;;;;;;;2.45;0.93;;;14.10;80.60;;;;;;5021124;28;20076;-79
2021/10/21 07:54:59;;;;;;;8.40;0.65;;;14.20;80.30;;;;;;5026085;28;20033;-79
2021/10/21 07:57:26;;;;;;;2.10;0.82;;;14.20;79.80;;;;;;5006990;28;20026;-80
2021/10/21 07:59:53;;;;;;;5.78;1.00;;;14.20;80.30;;;;;;5026863;28;20030;-80
2021/10/21 08:02:19;;;;;;;3.80;1.02;;;14.30;80.40;;;;;;5022363;28;20072;-80
2021/10/21 08:04:45;;;;;;;4.78;0.73;;;14.30;77.60;;;;;;5023637;28;20041;-80
2021/10/21 08:07:12;;;;;;;3.20;0.70;;;14.40;76.10;;;;;;5009048;28;20026;-79
2021/10/21 08:09:38;;;;;;;3.13;0.80;;;14.40;75.20;;;;;;5006586;28;20081;-79
2021/10/21 08:12:07;;;;;;;2.45;0.57;;;14.40;74.80;;;;;;5027345;28;20418;-79
2021/10/21 08:14:33;;;;;;;6.20;0.98;;;14.50;73.00;;;;;;5007355;28;20053;-79
2021/10/21 08:16:59;;;;;;;6.63;1.02;;;14.50;70.50;;;;;;5006247;28;20037;-79
2021/10/21 08:19:29;;;;;;;17.70;1.60;;;14.60;69.60;;;;;;5023288;28;20026;-79
2021/10/21 08:21:55;;;;;;;4.00;1.10;;;14.60;69.20;;;;;;5025574;28;20030;-80
2021/10/21 08:24:22;;;;;;;10.02;1.13;;;14.70;69.10;;;;;;5024689;28;20026;-78
2021/10/21 08:26:58;;;;;;;6.95;1.30;;;14.80;68.10;;;;;;5022934;28;20033;-79
2021/10/21 08:29:24;;;;;;;6.18;1.08;;;14.80;66.80;;;;;;5024233;28;20430;-79
2021/10/21 08:32:01;;;;;;;7.30;1.27;;;14.90;66.00;;;;;;5010924;28;20140;-79
2021/10/21 08:34:27;;;;;;;6.90;1.20;;;14.90;65.30;;;;;;5008996;28;20448;-79
2021/10/21 08:36:52;;;;;;;4.75;1.17;;;14.90;65.30;;;;;;5009124;28;20037;-80
2021/10/21 08:39:19;;;;;;;9.07;1.08;;;14.90;65.10;;;;;;5008416;28;20414;-80
2021/10/21 08:41:46;;;;;;;2.05;1.00;;;15.00;64.50;;;;;;5017476;28;20077;-81
2021/10/21 08:44:16;;;;;;;2.67;0.93;;;15.00;64.90;;;;;;5033233;28;20026;-80
2021/10/21 08:46:45;;;;;;;7.72;1.58;;;15.10;64.80;;;;;;5022612;28;20018;-80
2021/10/21 08:49:12;;;;;;;4.18;1.02;;;15.00;64.90;;;;;;5008094;28;20427;-79
2021/10/21 08:51:38;;;;;;;9.07;1.40;;;15.00;64.80;;;;;;5023497;28;20022;-79
2021/10/21 08:54:05;;;;;;;4.20;1.30;;;15.10;64.80;;;;;;5026929;28;20036;-80
2021/10/21 08:56:32;;;;;;;5.75;0.90;;;15.20;64.80;;;;;;5027314;28;20018;-79
2021/10/21 08:59:00;;;;;;;8.15;1.65;;;15.20;64.60;;;;;;5006304;28;20617;-79
2021/10/21 09:01:42;;;;;;;2.88;0.85;;;15.20;65.20;;;;;;5024499;28;20025;-79
2021/10/21 09:05:03;;;;;;;5.28;1.48;;;15.30;64.80;;;;;;5010465;28;20022;-80
2021/10/21 09:09:43;;;;;;;4.18;1.27;;;15.50;64.40;;;;;;5026346;28;20089;-80
2021/10/21 09:12:10;;;;;;;6.72;0.88;;;15.50;63.60;;;;;;5009049;28;20076;-79
2021/10/21 09:14:43;;;;;;;9.43;1.70;;;15.60;63.90;;;;;;5028022;28;20167;-79
2021/10/21 09:17:11;;;;;;;11.90;1.20;;;15.80;62.60;;;;;;5008497;28;20045;-80
2021/10/21 09:19:42;;;;;;;10.57;1.60;;;16.10;60.10;;;;;;5029951;28;20402;-79
2021/10/21 09:22:23;;;;;;;9.32;1.40;;;16.00;58.80;;;;;;5029020;28;20048;-80
2021/10/21 09:24:50;;;;;;;9.40;1.00;;;15.80;58.80;;;;;;5013651;28;20045;-80
2021/10/21 09:27:18;;;;;;;5.97;1.38;;;15.70;59.20;;;;;;5028745;28;20057;-79
2021/10/21 09:29:57;;;;;;;22.20;1.65;;;15.40;59.30;;;;;;5009676;28;20025;-80
2021/10/21 09:32:31;;;;;;;3.63;0.90;;;15.20;58.60;;;;;;5027536;28;20026;-79
2021/10/21 09:34:59;;;;;;;7.00;0.82;;;15.10;58.90;;;;;;5010045;28;20025;-81
2021/10/21 09:37:31;;;;;;;3.05;1.10;;;15.10;59.10;;;;;;5023126;28;20054;-80
2021/10/21 09:40:02;;;;;;;4.05;0.98;;;15.00;59.10;;;;;;5010456;28;20021;-79
2021/10/21 09:42:30;;;;;;;2.78;0.70;;;14.90;59.60;;;;;;5010842;28;20097;-79
2021/10/21 09:45:23;;;;;;;11.10;1.35;;;14.80;59.90;;;;;;5028107;28;20382;-80
2021/10/21 09:47:52;;;;;;;7.90;1.58;;;15.10;59.10;;;;;;5030691;28;20018;-79
2021/10/21 09:50:36;;;;;;;3.90;1.05;;;15.40;57.90;;;;;;5028686;28;20022;-79
2021/10/21 09:53:29;;;;;;;15.90;1.80;;;15.70;56.40;;;;;;5015143;28;20026;-80
2021/10/21 09:56:08;;;;;;;3.05;0.85;;;15.80;56.20;;;;;;5013229;28;20025;-80
2021/10/21 09:58:40;;;;;;;5.57;1.10;;;16.00;56.20;;;;;;5014997;28;20054;-78
2021/10/21 10:01:14;;;;;;;13.23;1.40;;;16.30;55.20;;;;;;5011018;28;20033;-79
2021/10/21 10:03:43;;;;;;;8.13;1.00;;;16.50;54.90;;;;;;5010161;28;20018;-79
2021/10/21 10:06:15;;;;;;;4.13;1.17;;;16.50;54.80;;;;;;5007317;28;20022;-80
2021/10/21 10:08:41;;;;;;;4.00;1.00;;;16.60;54.80;;;;;;5018363;28;20026;-80
2021/10/21 10:11:41;;;;;;;8.57;1.50;;;16.70;54.60;;;;;;5017726;28;20018;-80
2021/10/21 10:14:04;;;;;;;5.30;0.90;;;16.80;54.40;;;;;;5023416;28;20127;-79
2021/10/21 10:16:32;;;;;;;6.30;1.13;;;16.80;54.50;;;;;;5000420;28;20033;-79
2021/10/21 10:18:58;;;;;;;6.00;1.50;;;16.90;54.30;;;;;;5001255;28;20052;-79
2021/10/21 10:21:34;;;;;;;13.57;1.55;;;17.00;54.10;;;;;;5018899;28;20026;-79
2021/10/21 10:24:29;;;;;;;7.53;1.27;;;17.10;52.60;;;;;;5018768;28;20022;-79
2021/10/21 10:27:03;;;;;;;5.22;1.05;;;17.10;52.30;;;;;;4999305;28;20057;-79
2021/10/21 10:29:31;;;;;;;4.43;1.00;;;17.10;52.30;;;;;;5019626;28;20014;-79
2021/10/21 10:31:59;;;;;;;8.63;1.63;;;17.00;52.10;;;;;;5022921;28;20022;-79
2021/10/21 10:34:35;;;;;;;8.15;1.38;;;16.90;52.40;;;;;;5025903;28;20122;-79
2021/10/21 10:37:13;;;;;;;3.42;1.05;;;16.90;52.40;;;;;;5026413;28;20057;-79
2021/10/21 10:39:58;;;;;;;7.70;1.17;;;16.80;52.60;;;;;;5005974;28;20037;-79
2021/10/21 10:42:32;;;;;;;5.05;1.20;;;16.60;52.80;;;;;;5024921;28;20022;-78
2021/10/21 10:45:04;;;;;;;3.13;1.23;;;16.60;53.20;;;;;;5010136;28;20537;-79
2021/10/21 10:47:50;;;;;;;4.47;1.13;;;16.70;52.80;;;;;;5028038;28;20160;-78
2021/10/21 10:50:22;;;;;;;5.93;1.50;;;16.60;53.10;;;;;;5023967;28;20021;-79
2021/10/21 10:52:59;;;;;;;2.83;0.90;;;16.70;53.30;;;;;;5026239;28;20053;-79
2021/10/21 10:55:28;;;;;;;4.25;1.20;;;16.80;53.20;;;;;;5024714;28;20034;-80
2021/10/21 10:57:59;;;;;;;3.40;1.02;;;16.70;52.30;;;;;;5025975;28;20041;-79
2021/10/21 11:00:47;;;;;;;2.28;0.95;;;16.60;53.00;;;;;;5006875;28;20026;-79
2021/10/21 11:03:23;;;;;;;5.45;1.20;;;16.50;53.30;;;;;;5024290;28;20090;-78
2021/10/21 11:05:51;;;;;;;9.23;1.25;;;16.50;53.30;;;;;;5025446;28;20030;-79
2021/10/21 11:08:18;;;;;;;5.78;1.17;;;16.50;53.10;;;;;;5010921;28;20022;-80
2021/10/21 11:11:02;;;;;;;14.70;1.30;;;16.60;52.70;;;;;;5030784;28;20018;-80
2021/10/21 11:13:34;;;;;;;4.65;1.08;;;16.70;51.80;;;;;;5030081;28;20022;-78
2021/10/21 11:16:00;;;;;;;6.68;0.85;;;16.60;50.90;;;;;;5026774;28;20077;-79
2021/10/21 11:18:38;;;;;;;5.25;1.10;;;16.60;50.50;;;;;;5027159;28;20033;-80
2021/10/21 11:21:05;;;;;;;2.90;0.90;;;16.70;50.70;;;;;;5028751;28;20367;-78
2021/10/21 11:23:31;;;;;;;5.18;0.98;;;17.00;50.70;;;;;;5025901;28;20046;-80
2021/10/21 11:26:06;;;;;;;3.13;0.95;;;17.40;49.60;;;;;;5023842;28;20100;-79
2021/10/21 11:28:34;;;;;;;8.48;1.08;;;17.60;48.20;;;;;;5007415;28;20064;-80
2021/10/21 11:31:02;;;;;;;5.25;1.13;;;17.60;48.30;;;;;;5009209;28;20033;-79
2021/10/21 11:33:28;;;;;;;5.32;1.25;;;17.50;47.90;;;;;;5004609;28;20025;-78
2021/10/21 11:36:03;;;;;;;2.35;0.80;;;17.50;47.70;;;;;;5007754;28;20026;-78
2021/10/21 11:38:32;;;;;;;7.85;1.23;;;17.60;47.10;;;;;;5011968;28;20018;-80
2021/10/21 11:40:58;;;;;;;5.47;1.48;;;17.60;47.50;;;;;;5026417;28;20105;-79
2021/10/21 11:43:37;;;;;;;4.53;0.80;;;17.70;48.00;;;;;;5024992;28;20014;-80
2021/10/21 11:46:05;;;;;;;4.50;0.77;;;17.50;47.90;;;;;;5023945;28;20075;-80
2021/10/21 11:48:36;;;;;;;3.88;0.95;;;17.30;48.80;;;;;;4997526;28;20022;-77
2021/10/21 11:51:05;;;;;;;7.67;1.43;;;17.10;48.30;;;;;;5011370;28;20030;-78
2021/10/21 11:53:31;;;;;;;4.93;0.50;;;17.00;47.40;;;;;;5028028;28;20033;-81
2021/10/21 11:55:57;;;;;;;5.63;0.90;;;16.80;48.10;;;;;;5008692;28;20037;-80
2021/10/21 11:58:26;;;;;;;5.40;0.85;;;16.90;48.20;;;;;;5023458;28;20022;-79
2021/10/21 12:01:10;;;;;;;3.15;0.85;;;17.00;47.90;;;;;;5024845;28;20029;-80
2021/10/21 12:03:44;;;;;;;4.35;0.95;;;17.10;47.50;;;;;;5009750;28;20026;-79
2021/10/21 12:06:16;;;;;;;4.53;0.95;;;17.40;47.10;;;;;;5030894;28;20425;-78
2021/10/21 12:08:54;;;;;;;6.78;0.80;;;17.70;47.10;;;;;;5034747;28;20029;-81
2021/10/21 12:11:20;;;;;;;5.18;0.75;;;17.70;46.40;;;;;;5027705;28;20137;-79
2021/10/21 12:13:47;;;;;;;2.33;0.77;;;17.70;45.50;;;;;;5007026;28;20471;-80
2021/10/21 12:16:19;;;;;;;3.80;0.60;;;17.60;45.30;;;;;;5005522;28;20030;-78
2021/10/21 12:18:46;;;;;;;8.18;1.33;;;17.60;45.40;;;;;;5023535;28;20028;-79
2021/10/21 12:21:12;;;;;;;5.25;0.80;;;17.50;44.70;;;;;;5031109;28;20097;-80
2021/10/21 12:23:44;;;;;;;4.63;1.52;;;17.30;45.50;;;;;;5024997;28;20033;-79
2021/10/21 12:26:18;;;;;;;3.55;0.85;;;17.30;45.80;;;;;;5003239;28;20066;-80
2021/10/21 12:28:49;;;;;;;2.20;0.55;;;17.30;45.90;;;;;;5002856;28;20018;-79
2021/10/21 12:31:26;;;;;;;1.48;0.50;;;17.40;46.00;;;;;;4987781;28;20027;-80
2021/10/21 12:34:02;;;;;;;2.47;0.40;;;17.40;45.90;;;;;;5010543;28;20068;-78
2021/10/21 12:36:33;;;;;;;0.38;0.30;;;17.40;45.60;;;;;;5017635;28;20022;-79
2021/10/21 12:39:10;;;;;;;2.58;0.63;;;17.40;45.50;;;;;;5024083;28;20093;-78
2021/10/21 12:42:07;;;;;;;1.38;0.52;;;17.50;45.10;;;;;;5026013;28;20419;-80
2021/10/21 12:44:43;;;;;;;0.75;0.60;;;17.50;45.60;;;;;;5014319;28;20035;-81
2021/10/21 12:47:09;;;;;;;3.63;0.60;;;17.50;45.80;;;;;;4985272;28;20525;-79
2021/10/21 12:49:36;;;;;;;4.03;1.55;;;17.50;45.30;;;;;;5000440;28;20022;-81
2021/10/21 12:52:07;;;;;;;12.05;1.00;;;17.60;45.30;;;;;;4986570;28;20030;-80
2021/10/21 12:54:38;;;;;;;3.37;0.60;;;17.60;45.10;;;;;;5006721;28;20069;-79